Time;durP1;ratioP1;P1;durP2;ratioP2;P2;SDS_P1;SDS_P2;PMS_P1;PMS_P2;Temp;Humidity;BMP_temperature;BMP_pressure;BME280_temperature;BME280_humidity;BME280_pressure;Samples;Min_cycle;Max_cycle;Signal;HPM_P1;HPM_P2
2022/11/01 00:00:39;;;;;;;1999.90;999.90;;;11.50;99.90;;;;;;5088509;28;20442;-67
2022/11/01 00:03:06;;;;;;;1999.90;999.90;;;11.50;99.90;;;;;;5089144;28;20533;-69
2022/11/01 00:05:33;;;;;;;1999.90;999.90;;;11.50;99.90;;;;;;5088991;28;20482;-68
2022/11/01 00:08:00;;;;;;;1999.90;999.90;;;11.40;99.90;;;;;;5088470;28;20999;-69
2022/11/01 00:10:26;;;;;;;1999.90;999.90;;;11.40;99.90;;;;;;5089404;28;20446;-69
2022/11/01 00:12:54;;;;;;;1999.90;999.90;;;11.30;99.90;;;;;;5088014;28;20450;-68
2022/11/01 00:15:22;;;;;;;1999.90;999.90;;;11.30;99.90;;;;;;5088851;28;20442;-69
2022/11/01 00:17:49;;;;;;;1999.90;999.90;;;11.30;99.90;;;;;;5088553;28;20439;-68
2022/11/01 00:20:16;;;;;;;1999.90;999.90;;;11.30;99.90;;;;;;5089174;28;20449;-69
2022/11/01 00:22:43;;;;;;;1999.90;999.90;;;11.30;99.90;;;;;;5087566;28;20537;-69
2022/11/01 00:25:11;;;;;;;1999.90;999.90;;;11.20;99.90;;;;;;5088669;28;20479;-69
2022/11/01 00:27:38;;;;;;;1999.90;999.90;;;11.20;99.90;;;;;;5088883;28;21254;-68
2022/11/01 00:30:06;;;;;;;1999.90;999.90;;;11.10;99.90;;;;;;5088022;28;20469;-69
2022/11/01 00:32:34;;;;;;;1999.90;999.90;;;11.20;99.90;;;;;;5087845;28;20928;-69
2022/11/01 00:35:01;;;;;;;1999.90;999.90;;;11.20;99.90;;;;;;5087732;28;20450;-69
2022/11/01 00:37:28;;;;;;;1999.90;999.90;;;11.30;99.90;;;;;;5088828;28;20449;-67
2022/11/01 00:39:56;;;;;;;1999.90;999.90;;;11.30;99.90;;;;;;5088400;28;20537;-68
2022/11/01 00:42:23;;;;;;;1999.90;999.90;;;11.30;99.90;;;;;;5088225;28;20446;-69
2022/11/01 00:44:50;;;;;;;1999.90;999.90;;;11.30;99.90;;;;;;5087908;28;20481;-68
2022/11/01 00:47:17;;;;;;;1999.90;999.90;;;11.40;99.90;;;;;;5088893;28;20442;-68
2022/11/01 00:49:45;;;;;;;1999.90;999.90;;;11.40;99.90;;;;;;5088996;28;20473;-69
2022/11/01 00:52:11;;;;;;;1999.90;999.90;;;11.40;99.90;;;;;;5088558;28;20446;-68
2022/11/01 00:54:38;;;;;;;1999.90;999.90;;;11.50;99.90;;;;;;5088883;28;20438;-68
2022/11/01 00:57:06;;;;;;;1999.90;999.90;;;11.40;99.90;;;;;;5089200;28;20446;-68
2022/11/01 00:59:33;;;;;;;1999.90;999.90;;;11.40;99.90;;;;;;5088461;28;21109;-68
2022/11/01 01:02:00;;;;;;;1999.90;999.90;;;11.40;99.90;;;;;;5087121;28;21337;-68
2022/11/01 01:04:26;;;;;;;1999.90;999.90;;;11.40;99.90;;;;;;5088137;28;20535;-68
2022/11/01 01:06:55;;;;;;;1999.90;999.90;;;11.40;99.90;;;;;;5087917;28;20503;-69
2022/11/01 01:09:21;;;;;;;1999.90;999.90;;;11.40;99.90;;;;;;5088414;28;20493;-69
2022/11/01 01:11:48;;;;;;;1999.90;999.90;;;11.40;99.90;;;;;;5086856;28;20469;-68
2022/11/01 01:14:15;;;;;;;1999.90;999.90;;;11.40;99.90;;;;;;5087857;28;20453;-68
2022/11/01 01:16:42;;;;;;;1999.90;999.90;;;11.40;99.90;;;;;;5087763;28;20529;-69
2022/11/01 01:19:09;;;;;;;1999.90;999.90;;;11.40;99.90;;;;;;5088171;28;20473;-68
2022/11/01 01:21:35;;;;;;;1999.90;999.90;;;11.30;99.90;;;;;;5087789;28;20649;-68
2022/11/01 01:24:04;;;;;;;1999.90;999.90;;;11.30;99.90;;;;;;5087074;28;20818;-68
2022/11/01 01:26:30;;;;;;;1999.90;999.90;;;11.20;99.90;;;;;;5087892;28;20473;-68
2022/11/01 01:28:57;;;;;;;1999.90;999.90;;;11.20;99.90;;;;;;5087683;28;20466;-68
2022/11/01 01:31:24;;;;;;;1999.90;999.90;;;11.20;99.90;;;;;;5087727;28;20453;-68
2022/11/01 01:33:51;;;;;;;1999.90;999.90;;;11.30;99.90;;;;;;5087374;28;20474;-68
2022/11/01 01:36:18;;;;;;;1999.90;999.90;;;11.20;99.90;;;;;;5087945;28;20940;-68
2022/11/01 01:38:45;;;;;;;1999.90;999.90;;;11.20;99.90;;;;;;5087840;28;20466;-69
2022/11/01 01:43:58;;;;;;;1999.90;999.90;;;11.20;99.90;;;;;;5087352;28;20559;-68
2022/11/01 01:46:25;;;;;;;1999.90;999.90;;;11.20;99.90;;;;;;5087840;28;20442;-69
2022/11/01 01:48:56;;;;;;;1999.90;999.90;;;11.10;99.90;;;;;;5078783;28;20529;-69
2022/11/01 01:51:26;;;;;;;1999.90;999.90;;;11.20;99.90;;;;;;5081983;28;20447;-68
2022/11/01 01:53:57;;;;;;;1999.90;999.90;;;11.20;99.90;;;;;;5085617;28;20447;-69
2022/11/01 01:56:30;;;;;;;1999.90;999.90;;;11.20;99.90;;;;;;5065873;28;21006;-69
2022/11/01 01:59:02;;;;;;;1999.90;999.90;;;11.20;99.90;;;;;;5066457;28;20471;-68
2022/11/01 02:01:29;;;;;;;1999.90;999.90;;;11.20;99.90;;;;;;5071320;28;20469;-68
2022/11/01 02:03:57;;;;;;;1999.90;999.90;;;11.20;99.90;;;;;;5083872;28;21011;-69
2022/11/01 02:06:25;;;;;;;1999.90;999.90;;;11.30;99.90;;;;;;5076692;28;20446;-69
2022/11/01 02:08:55;;;;;;;1999.90;999.90;;;11.30;99.90;;;;;;5086073;28;20990;-68
2022/11/01 02:11:22;;;;;;;1999.90;999.90;;;11.40;99.90;;;;;;5086719;28;20445;-68
2022/11/01 02:13:51;;;;;;;1999.90;999.90;;;11.40;99.90;;;;;;5085640;28;20971;-69
2022/11/01 02:16:35;;;;;;;1999.90;999.90;;;11.50;99.90;;;;;;5086258;28;20438;-69
2022/11/01 02:19:22;;;;;;;1999.90;999.90;;;11.60;99.90;;;;;;5086159;28;20461;-69
2022/11/01 02:22:00;;;;;;;1999.90;999.90;;;11.70;99.90;;;;;;5085962;28;20453;-69
2022/11/01 02:25:09;;;;;;;1999.90;999.90;;;11.80;99.90;;;;;;5080714;28;20470;-69
2022/11/01 02:27:51;;;;;;;1999.90;999.90;;;11.80;99.90;;;;;;5090082;28;20445;-69
2022/11/01 02:30:20;;;;;;;1999.90;999.90;;;11.90;99.90;;;;;;5090337;28;20422;-69
2022/11/01 02:33:17;;;;;;;1999.90;999.90;;;12.00;99.90;;;;;;5088964;28;20446;-69
2022/11/01 02:35:54;;;;;;;1999.90;999.90;;;12.10;99.90;;;;;;5087408;28;20462;-68
2022/11/01 02:38:25;;;;;;;1999.90;999.90;;;12.20;99.90;;;;;;5090066;28;20468;-67
2022/11/01 02:41:00;;;;;;;1999.90;999.90;;;12.20;99.90;;;;;;5089064;28;20449;-69
2022/11/01 02:43:31;;;;;;;1999.90;999.90;;;12.30;99.90;;;;;;5089595;28;20438;-69
2022/11/01 02:46:59;;;;;;;1999.90;999.90;;;12.30;99.90;;;;;;5089155;28;20853;-69
2022/11/01 02:48:51;;;;;;;1999.90;999.90;;;12.30;99.90;;;;;;5089140;28;20824;-68
2022/11/01 02:51:19;;;;;;;1999.90;999.90;;;12.40;99.90;;;;;;5087565;28;20469;-68
2022/11/01 02:53:46;;;;;;;1999.90;999.90;;;12.40;99.90;;;;;;5089465;28;20449;-68
2022/11/01 02:56:14;;;;;;;1999.90;999.90;;;12.50;99.90;;;;;;5090107;28;20442;-68
2022/11/01 02:58:41;;;;;;;1999.90;999.90;;;12.50;99.90;;;;;;5090097;28;20466;-68
2022/11/01 03:01:14;;;;;;;1999.90;999.90;;;12.60;99.90;;;;;;5090430;28;20453;-70
2022/11/01 03:03:45;;;;;;;1999.90;999.90;;;12.60;99.90;;;;;;5088814;28;20928;-69
2022/11/01 03:06:21;;;;;;;1999.90;999.90;;;12.70;99.90;;;;;;5090796;28;20488;-69
2022/11/01 03:08:51;;;;;;;1999.90;999.90;;;12.70;99.90;;;;;;5090512;28;20468;-70
2022/11/01 03:11:19;;;;;;;1999.90;999.90;;;12.70;99.90;;;;;;5090686;28;20452;-69
2022/11/01 03:13:57;;;;;;;1999.90;999.90;;;12.80;99.90;;;;;;5091152;28;20533;-70
2022/11/01 03:16:30;;;;;;;1999.90;999.90;;;12.80;99.90;;;;;;5091551;28;20450;-70
2022/11/01 03:19:06;;;;;;;1999.90;999.90;;;12.80;99.90;;;;;;5091630;28;20836;-71
2022/11/01 03:21:39;;;;;;;1999.90;999.90;;;12.80;99.90;;;;;;5090862;28;20465;-69
2022/11/01 03:24:15;;;;;;;1999.90;999.90;;;12.90;99.90;;;;;;5091530;28;20445;-70
2022/11/01 03:26:45;;;;;;;1999.90;999.90;;;12.90;99.90;;;;;;5091747;28;20524;-70
2022/11/01 03:29:14;;;;;;;1999.90;999.90;;;12.90;99.90;;;;;;5091475;28;20462;-70
2022/11/01 03:31:42;;;;;;;1999.90;999.90;;;12.90;99.90;;;;;;5090750;28;20450;-69
2022/11/01 03:34:16;;;;;;;1999.90;999.90;;;12.90;99.90;;;;;;5091055;28;20465;-70
2022/11/01 03:36:49;;;;;;;1999.90;999.90;;;13.00;99.90;;;;;;5090662;28;20442;-69
2022/11/01 03:39:20;;;;;;;1999.90;999.90;;;13.00;99.90;;;;;;5091248;28;20833;-70
2022/11/01 03:41:51;;;;;;;1999.90;999.90;;;13.00;99.90;;;;;;5090693;28;20442;-70
2022/11/01 03:44:19;;;;;;;1999.90;999.90;;;13.00;99.90;;;;;;5091099;28;20441;-70
2022/11/01 03:46:47;;;;;;;1999.90;999.90;;;13.00;99.90;;;;;;5090979;28;20477;-70
2022/11/01 03:49:17;;;;;;;1999.90;999.90;;;13.10;99.90;;;;;;5091425;28;20473;-70
2022/11/01 03:51:45;;;;;;;1999.90;999.90;;;13.10;99.90;;;;;;5090456;28;20450;-69
2022/11/01 03:54:12;;;;;;;1999.90;999.90;;;13.10;99.90;;;;;;5091214;28;20442;-69
2022/11/01 03:56:39;;;;;;;1999.90;999.90;;;13.10;99.90;;;;;;5090695;28;20446;-70
2022/11/01 03:59:06;;;;;;;1999.90;999.90;;;13.10;99.90;;;;;;5091384;28;20466;-69
2022/11/01 04:01:34;;;;;;;1999.90;999.90;;;13.10;99.90;;;;;;5090530;28;20446;-69
2022/11/01 04:04:01;;;;;;;1999.90;999.90;;;13.10;99.90;;;;;;5091175;28;20450;-71
2022/11/01 04:06:27;;;;;;;1999.90;999.90;;;13.10;99.90;;;;;;5086962;28;20478;-70
2022/11/01 04:08:56;;;;;;;1999.90;999.90;;;13.20;99.90;;;;;;5084943;28;20474;-70
2022/11/01 04:11:22;;;;;;;1999.90;999.90;;;13.10;99.90;;;;;;5079646;28;20931;-69
2022/11/01 04:13:49;;;;;;;1999.90;999.90;;;13.20;99.90;;;;;;5083241;28;20491;-70
2022/11/01 04:21:44;;;;;;;1999.90;999.90;;;13.20;99.90;;;;;;5089711;28;20812;-69
2022/11/01 04:24:19;;;;;;;1999.90;999.90;;;13.20;99.90;;;;;;5090142;28;21090;-70
2022/11/01 04:26:46;;;;;;;1999.90;999.90;;;13.20;99.90;;;;;;5090425;28;20484;-70
2022/11/01 04:29:13;;;;;;;1999.90;999.90;;;13.10;99.90;;;;;;5090226;28;20998;-69
2022/11/01 04:31:40;;;;;;;1999.90;999.90;;;13.10;99.90;;;;;;5089562;28;20446;-70
2022/11/01 04:34:07;;;;;;;1999.90;999.90;;;13.10;99.90;;;;;;5090080;28;20450;-70
2022/11/01 04:36:34;;;;;;;1999.90;999.90;;;13.20;99.90;;;;;;5089850;28;20438;-71
2022/11/01 04:39:00;;;;;;;1999.90;999.90;;;13.20;99.90;;;;;;5089897;28;20462;-70
2022/11/01 04:41:29;;;;;;;1999.90;999.90;;;13.20;99.90;;;;;;5089838;28;20446;-69
2022/11/01 04:43:57;;;;;;;1999.90;999.90;;;13.30;99.90;;;;;;5089628;28;21004;-69
2022/11/01 04:46:24;;;;;;;1999.90;999.90;;;13.30;99.90;;;;;;5089597;28;20555;-70
2022/11/01 04:48:51;;;;;;;1999.90;999.90;;;13.30;99.90;;;;;;5089839;28;20466;-70
2022/11/01 04:51:18;;;;;;;1999.90;999.90;;;13.20;99.90;;;;;;5089398;28;20457;-69
2022/11/01 04:53:45;;;;;;;1999.90;999.90;;;13.30;99.90;;;;;;5089815;28;20446;-70
2022/11/01 04:56:13;;;;;;;1999.90;999.90;;;13.30;99.90;;;;;;5089521;28;20442;-69
2022/11/01 04:58:41;;;;;;;1999.90;999.90;;;13.30;99.90;;;;;;5089714;28;20470;-69
2022/11/01 05:01:08;;;;;;;1999.90;999.90;;;13.30;99.90;;;;;;5089187;28;20445;-69
2022/11/01 05:03:35;;;;;;;1999.90;999.90;;;13.30;99.90;;;;;;5089332;28;20442;-69
2022/11/01 05:06:02;;;;;;;1999.90;999.90;;;13.30;99.90;;;;;;5089346;28;20478;-69
2022/11/01 05:08:29;;;;;;;1999.90;999.90;;;13.30;99.90;;;;;;5089789;28;20474;-69
2022/11/01 05:10:56;;;;;;;1999.90;999.90;;;13.30;99.90;;;;;;5089375;28;20438;-70
2022/11/01 05:13:23;;;;;;;1999.90;999.90;;;13.30;99.90;;;;;;5089223;28;20448;-69
2022/11/01 05:15:54;;;;;;;1999.90;999.90;;;13.30;99.90;;;;;;5089152;28;20442;-69
2022/11/01 05:18:21;;;;;;;1999.90;999.90;;;13.30;99.90;;;;;;5089496;28;20470;-70
2022/11/01 05:20:47;;;;;;;1999.90;999.90;;;13.40;99.90;;;;;;5089491;28;20446;-69
2022/11/01 05:23:14;;;;;;;1999.90;999.90;;;13.40;99.90;;;;;;5089230;28;20537;-69
2022/11/01 05:25:41;;;;;;;1999.90;999.90;;;13.50;99.90;;;;;;5089254;28;20519;-69
2022/11/01 05:28:10;;;;;;;1999.90;999.90;;;13.50;99.90;;;;;;5089417;28;20442;-68
2022/11/01 05:30:37;;;;;;;1999.90;999.90;;;13.60;99.90;;;;;;5088791;28;20449;-70
2022/11/01 05:33:07;;;;;;;1999.90;999.90;;;13.60;99.90;;;;;;5088881;28;20488;-70
2022/11/01 05:35:35;;;;;;;1999.90;999.90;;;13.60;99.90;;;;;;5089023;28;20794;-69
2022/11/01 05:38:03;;;;;;;1999.90;999.90;;;13.70;99.90;;;;;;5089358;28;20474;-69
2022/11/01 05:40:30;;;;;;;1999.90;999.90;;;13.70;99.90;;;;;;5089692;28;20449;-69
2022/11/01 05:42:58;;;;;;;1999.90;999.90;;;13.70;99.90;;;;;;5088292;28;20446;-70
2022/11/01 05:45:25;;;;;;;1999.90;999.90;;;13.70;99.90;;;;;;5088713;28;20548;-69
2022/11/01 05:47:52;;;;;;;1999.90;999.90;;;13.70;99.90;;;;;;5089468;28;20450;-69
2022/11/01 05:50:20;;;;;;;1999.90;999.90;;;13.80;99.90;;;;;;5089201;28;20517;-69
2022/11/01 05:52:48;;;;;;;1999.90;999.90;;;13.70;99.90;;;;;;5088489;28;20444;-69
2022/11/01 05:55:15;;;;;;;1999.90;999.90;;;13.80;99.90;;;;;;5088699;28;20944;-69
2022/11/01 05:57:42;;;;;;;1999.90;999.90;;;13.70;99.90;;;;;;5089297;28;20451;-70
2022/11/01 06:00:10;;;;;;;1999.90;999.90;;;13.80;99.90;;;;;;5091807;28;21022;-69
2022/11/01 06:02:37;;;;;;;1999.90;999.90;;;13.80;99.90;;;;;;5092693;28;20442;-69
2022/11/01 06:05:04;;;;;;;1999.90;999.90;;;13.80;99.90;;;;;;5092836;28;20450;-70
2022/11/01 06:07:34;;;;;;;1999.90;999.90;;;13.90;99.90;;;;;;5093262;28;20485;-69
2022/11/01 06:10:01;;;;;;;1999.90;999.90;;;13.90;99.90;;;;;;5093209;28;20470;-69
2022/11/01 06:12:28;;;;;;;1999.90;999.90;;;13.90;99.90;;;;;;5092555;28;20442;-70
2022/11/01 06:14:54;;;;;;;1999.90;999.90;;;13.80;99.90;;;;;;5093156;28;20457;-69
2022/11/01 06:17:21;;;;;;;1999.90;999.90;;;13.80;99.90;;;;;;5093504;28;20441;-69
2022/11/01 06:19:48;;;;;;;1999.90;999.90;;;13.80;99.90;;;;;;5093190;28;20466;-69
2022/11/01 06:22:15;;;;;;;1999.90;999.90;;;13.80;99.90;;;;;;5092174;28;20442;-69
2022/11/01 06:24:43;;;;;;;1999.90;999.90;;;13.80;99.90;;;;;;5092696;28;20446;-69
2022/11/01 06:27:09;;;;;;;1999.90;999.90;;;13.80;99.90;;;;;;5092522;28;20560;-69
2022/11/01 06:29:36;;;;;;;1999.90;999.90;;;13.80;99.90;;;;;;5092913;28;20548;-69
2022/11/01 06:32:04;;;;;;;1999.90;999.90;;;13.90;99.90;;;;;;5091902;28;20454;-70
2022/11/01 06:34:31;;;;;;;1999.90;999.90;;;13.90;99.90;;;;;;5092341;28;20848;-69
2022/11/01 06:36:58;;;;;;;1999.90;999.90;;;14.00;99.90;;;;;;5092494;28;20971;-69
2022/11/01 06:39:25;;;;;;;1999.90;999.90;;;13.90;99.90;;;;;;5092537;28;21222;-69
2022/11/01 06:41:54;;;;;;;1999.90;999.90;;;13.90;99.90;;;;;;5091608;28;20446;-69
2022/11/01 06:44:21;;;;;;;1999.90;999.90;;;13.80;99.90;;;;;;5092094;28;20952;-68
2022/11/01 06:46:48;;;;;;;1999.90;999.90;;;13.80;99.90;;;;;;5092380;28;20481;-69
2022/11/01 06:49:15;;;;;;;1999.90;999.90;;;13.80;99.90;;;;;;5092173;28;20466;-69
2022/11/01 06:51:42;;;;;;;1999.90;999.90;;;13.70;99.90;;;;;;5091853;28;20448;-70
2022/11/01 06:54:09;;;;;;;1999.90;999.90;;;13.60;99.90;;;;;;5092051;28;20454;-69
2022/11/01 06:56:35;;;;;;;1999.90;999.90;;;13.60;99.90;;;;;;5090004;28;20565;-68
2022/11/01 06:59:03;;;;;;;1999.90;999.90;;;13.70;99.90;;;;;;5087213;28;20474;-70
2022/11/01 07:01:30;;;;;;;1999.90;999.90;;;13.80;99.90;;;;;;5087700;28;20555;-70
2022/11/01 07:03:57;;;;;;;1999.90;999.90;;;13.80;99.90;;;;;;5088450;28;20454;-69
2022/11/01 07:06:27;;;;;;;1999.90;999.90;;;13.90;99.90;;;;;;5089671;28;20500;-70
2022/11/01 07:08:54;;;;;;;1999.90;999.90;;;13.90;99.90;;;;;;5091710;28;20515;-69
2022/11/01 07:11:21;;;;;;;1999.90;999.90;;;13.90;99.90;;;;;;5090393;28;20534;-69
2022/11/01 07:13:48;;;;;;;1999.90;999.90;;;13.90;99.90;;;;;;5091078;28;20442;-69
2022/11/01 07:16:16;;;;;;;1999.90;999.90;;;13.90;99.90;;;;;;5091642;28;20446;-69
2022/11/01 07:18:43;;;;;;;1999.90;999.90;;;13.90;99.90;;;;;;5091528;28;20836;-70
2022/11/01 07:21:10;;;;;;;1999.90;999.90;;;13.90;99.90;;;;;;5091221;28;20457;-69
2022/11/01 07:23:37;;;;;;;1999.90;999.90;;;14.00;99.90;;;;;;5092034;28;20446;-70
2022/11/01 07:26:04;;;;;;;1999.90;999.90;;;14.00;99.90;;;;;;5091379;28;20478;-71
2022/11/01 07:28:31;;;;;;;1999.90;999.90;;;14.10;99.90;;;;;;5090237;28;21068;-69
2022/11/01 07:30:57;;;;;;;1999.90;999.90;;;14.10;99.90;;;;;;5090293;28;20442;-71
2022/11/01 07:33:25;;;;;;;1999.90;999.90;;;14.20;99.90;;;;;;5085841;28;20461;-71
2022/11/01 07:35:52;;;;;;;1999.90;999.90;;;14.30;99.90;;;;;;5090966;28;20485;-71
2022/11/01 07:38:19;;;;;;;1999.90;999.90;;;14.40;99.90;;;;;;5092322;28;21165;-71
2022/11/01 07:40:48;;;;;;;1999.90;999.90;;;14.40;99.90;;;;;;5092121;28;20442;-70
2022/11/01 07:43:15;;;;;;;1999.90;999.90;;;14.50;99.90;;;;;;5091818;28;20454;-70
2022/11/01 07:45:43;;;;;;;1999.90;999.90;;;14.50;99.90;;;;;;5091599;28;20446;-70
2022/11/01 07:48:12;;;;;;;1999.90;999.90;;;14.60;99.90;;;;;;5092137;28;20446;-71
2022/11/01 07:50:42;;;;;;;1999.90;999.90;;;14.70;99.90;;;;;;5091554;28;20441;-71
2022/11/01 07:53:10;;;;;;;1999.90;999.90;;;14.70;99.90;;;;;;5091796;28;20966;-71
2022/11/01 07:55:38;;;;;;;1999.90;999.90;;;14.90;99.90;;;;;;5091679;28;20442;-68
2022/11/01 07:58:06;;;;;;;1999.90;999.90;;;15.00;99.90;;;;;;5091091;28;20454;-69
2022/11/01 08:00:33;;;;;;;1999.90;999.90;;;15.10;99.90;;;;;;5091086;28;20823;-69
2022/11/01 08:03:01;;;;;;;1999.90;999.90;;;15.20;99.90;;;;;;5090349;28;20442;-69
2022/11/01 08:05:28;;;;;;;1999.90;999.90;;;15.30;99.90;;;;;;5090117;28;20446;-69
2022/11/01 08:07:56;;;;;;;1999.90;999.90;;;15.30;99.90;;;;;;5084719;28;20490;-69
2022/11/01 08:10:23;;;;;;;1999.90;999.90;;;15.40;99.90;;;;;;5085046;28;20469;-69
2022/11/01 08:12:50;;;;;;;1999.90;999.90;;;15.40;99.90;;;;;;5089803;28;20446;-69
2022/11/01 08:15:16;;;;;;;1999.90;999.90;;;15.50;99.90;;;;;;5090401;28;20449;-68
2022/11/01 08:17:43;;;;;;;1999.90;999.90;;;15.40;99.90;;;;;;5090678;28;20449;-70
2022/11/01 08:20:11;;;;;;;1999.90;999.90;;;15.50;99.90;;;;;;5090753;28;20462;-70
2022/11/01 08:22:39;;;;;;;1999.90;999.90;;;15.70;99.90;;;;;;5089815;28;20448;-70
2022/11/01 08:25:07;;;;;;;1999.90;999.90;;;15.80;99.90;;;;;;5090237;28;20450;-70
2022/11/01 08:27:34;;;;;;;1999.90;999.90;;;16.00;99.90;;;;;;5091032;28;20482;-70
2022/11/01 08:30:01;;;;;;;1999.90;999.90;;;16.10;99.90;;;;;;5090487;28;20474;-70
2022/11/01 08:32:28;;;;;;;1999.90;999.90;;;16.20;99.90;;;;;;5090031;28;20533;-69
2022/11/01 08:34:55;;;;;;;1999.90;999.90;;;16.40;99.90;;;;;;5089985;28;20458;-69
2022/11/01 08:37:22;;;;;;;1999.90;999.90;;;16.40;99.90;;;;;;5087719;28;20446;-70
2022/11/01 08:39:49;;;;;;;1999.90;999.90;;;16.50;99.90;;;;;;5089927;28;20501;-69
2022/11/01 08:42:17;;;;;;;1999.90;999.90;;;16.60;99.90;;;;;;5089277;28;20450;-69
2022/11/01 08:44:44;;;;;;;1999.90;999.90;;;16.70;99.90;;;;;;5089965;28;20454;-68
2022/11/01 08:47:10;;;;;;;1999.90;999.90;;;16.80;99.90;;;;;;5090215;28;20485;-72
2022/11/01 08:49:37;;;;;;;1999.90;999.90;;;16.90;99.90;;;;;;5090117;28;20467;-69
2022/11/01 08:52:05;;;;;;;1999.90;999.90;;;17.10;99.90;;;;;;5089061;28;20454;-70
2022/11/01 08:54:31;;;;;;;1999.90;999.90;;;17.10;99.90;;;;;;5089967;28;20442;-69
2022/11/01 08:56:58;;;;;;;1999.90;999.90;;;17.10;99.90;;;;;;5090176;28;20517;-71
2022/11/01 08:59:26;;;;;;;1999.90;999.90;;;17.10;99.90;;;;;;5090027;28;20466;-71
2022/11/01 09:01:53;;;;;;;1999.90;999.90;;;17.20;99.90;;;;;;5089154;28;20449;-72
2022/11/01 09:04:20;;;;;;;1999.90;999.90;;;17.20;99.90;;;;;;5089551;28;20449;-70
2022/11/01 09:06:47;;;;;;;1999.90;999.90;;;17.20;99.90;;;;;;5089769;28;20470;-70
2022/11/01 09:09:13;;;;;;;1999.90;999.90;;;17.30;99.90;;;;;;5089982;28;20484;-72
2022/11/01 09:11:40;;;;;;;1999.90;999.90;;;17.40;99.90;;;;;;5082390;28;20473;-70
2022/11/01 09:14:07;;;;;;;1999.90;999.90;;;17.50;99.90;;;;;;5079498;28;20447;-71
2022/11/01 09:16:35;;;;;;;1999.90;999.90;;;17.60;99.90;;;;;;5081827;28;20446;-72
2022/11/01 09:19:02;;;;;;;1999.90;999.90;;;17.70;99.90;;;;;;5088205;28;20466;-72
2022/11/01 09:21:29;;;;;;;1999.90;999.90;;;17.70;99.90;;;;;;5082088;28;20553;-71
2022/11/01 09:23:57;;;;;;;1999.90;999.90;;;17.60;99.90;;;;;;5086378;28;20533;-71
2022/11/01 09:26:25;;;;;;;1999.90;999.90;;;17.70;99.90;;;;;;5089389;28;20450;-70
2022/11/01 09:28:53;;;;;;;1999.90;999.90;;;17.70;99.90;;;;;;5084101;28;20469;-72
2022/11/01 09:31:20;;;;;;;1999.90;999.90;;;17.90;99.90;;;;;;5089325;28;20469;-72
2022/11/01 09:33:49;;;;;;;1999.90;999.90;;;18.00;99.90;;;;;;5089445;28;21093;-70
2022/11/01 09:36:16;;;;;;;1999.90;999.90;;;18.20;99.90;;;;;;5093591;28;20442;-69
2022/11/01 09:38:42;;;;;;;1999.90;999.90;;;18.30;99.90;;;;;;5093663;28;20458;-69
2022/11/01 09:41:21;;;;;;;1999.90;999.90;;;18.40;99.90;;;;;;5093353;28;20446;-68
2022/11/01 09:43:50;;;;;;;1999.90;999.90;;;18.40;99.90;;;;;;5093295;28;20457;-69
2022/11/01 09:46:20;;;;;;;1999.90;999.90;;;18.60;99.90;;;;;;5090053;28;20454;-69
2022/11/01 09:48:49;;;;;;;1999.90;999.90;;;18.80;99.90;;;;;;5091010;28;20552;-70
2022/11/01 09:51:20;;;;;;;1999.90;999.90;;;19.00;99.90;;;;;;5090012;28;20446;-69
2022/11/01 09:53:48;;;;;;;1999.90;999.90;;;19.30;99.90;;;;;;5086269;28;20450;-70
2022/11/01 09:56:21;;;;;;;1999.90;999.90;;;19.20;99.90;;;;;;5083734;28;20454;-71
2022/11/01 09:58:57;;;;;;;1999.90;999.90;;;19.40;99.90;;;;;;5080893;28;20549;-71
2022/11/01 10:01:39;;;;;;;1999.90;999.90;;;19.60;99.90;;;;;;5084025;28;20461;-71
2022/11/01 10:04:36;;;;;;;1999.90;999.90;;;20.10;99.90;;;;;;5082528;28;20445;-69
2022/11/01 10:07:07;;;;;;;1999.90;999.90;;;20.90;99.90;;;;;;5086937;28;20482;-71
2022/11/01 10:09:43;;;;;;;1999.90;999.90;;;21.70;99.90;;;;;;5087154;28;20462;-69
2022/11/01 10:12:23;;;;;;;1999.90;999.90;;;22.60;99.90;;;;;;5081826;28;20453;-70
2022/11/01 10:15:03;;;;;;;1999.90;999.90;;;23.10;99.90;;;;;;5088478;28;20794;-68
2022/11/01 10:17:47;;;;;;;1999.90;999.90;;;23.40;99.90;;;;;;5074893;28;20978;-69
2022/11/01 10:20:16;;;;;;;1999.90;999.90;;;23.30;99.90;;;;;;5085851;28;20470;-71
2022/11/01 10:22:47;;;;;;;1999.90;999.90;;;23.20;99.90;;;;;;5076404;28;20453;-71
2022/11/01 10:25:20;;;;;;;1999.90;999.90;;;23.10;99.90;;;;;;5076401;28;20443;-68
2022/11/01 10:27:53;;;;;;;1999.90;999.90;;;23.00;99.90;;;;;;5080697;28;20478;-70
2022/11/01 10:30:21;;;;;;;1999.90;999.90;;;22.50;99.90;;;;;;5082746;28;20442;-69
2022/11/01 10:32:51;;;;;;;1999.90;999.90;;;22.40;99.90;;;;;;5082963;28;21090;-70
2022/11/01 10:35:23;;;;;;;1999.90;999.90;;;22.30;99.90;;;;;;5084121;28;20454;-69
2022/11/01 10:37:55;;;;;;;1999.90;999.90;;;22.30;99.90;;;;;;5082599;28;20450;-70
2022/11/01 10:40:27;;;;;;;1999.90;999.90;;;22.30;99.90;;;;;;5082376;28;21030;-69
2022/11/01 10:42:53;;;;;;;1999.90;999.90;;;22.30;99.90;;;;;;5094290;28;20558;-71
2022/11/01 10:45:22;;;;;;;1999.90;999.90;;;22.00;99.90;;;;;;5081286;28;20454;-69
2022/11/01 10:47:56;;;;;;;1999.90;999.90;;;21.70;99.90;;;;;;5084194;28;20485;-69
2022/11/01 10:50:27;;;;;;;1999.90;999.90;;;21.40;99.90;;;;;;5079386;28;20445;-69
2022/11/01 10:53:01;;;;;;;1999.90;999.90;;;21.20;99.90;;;;;;5089237;28;20446;-72
2022/11/01 10:55:32;;;;;;;1999.90;999.90;;;21.10;99.90;;;;;;5080570;28;20541;-72
2022/11/01 10:58:03;;;;;;;1999.90;999.90;;;21.20;99.90;;;;;;5083686;28;20437;-70
2022/11/01 11:00:34;;;;;;;1999.90;999.90;;;21.20;99.90;;;;;;5079466;28;21293;-71
2022/11/01 11:03:10;;;;;;;1999.90;999.90;;;21.30;99.90;;;;;;5082774;28;20443;-72
2022/11/01 11:05:38;;;;;;;1999.90;999.90;;;21.00;99.90;;;;;;5090452;28;20442;-73
2022/11/01 11:08:15;;;;;;;1999.90;999.90;;;20.80;99.90;;;;;;5087199;28;20490;-71
2022/11/01 11:10:44;;;;;;;1999.90;999.90;;;20.70;99.90;;;;;;5086913;28;20458;-70
2022/11/01 11:13:13;;;;;;;1999.90;999.90;;;20.40;99.90;;;;;;5084431;28;20857;-75
2022/11/01 11:15:44;;;;;;;1999.90;999.90;;;20.10;99.90;;;;;;5078679;28;20446;-71
2022/11/01 11:18:22;;;;;;;1999.90;999.90;;;19.80;99.90;;;;;;5078719;28;20470;-71
2022/11/01 11:20:55;;;;;;;1999.90;999.90;;;19.60;99.90;;;;;;5081183;28;20459;-71
2022/11/01 11:23:22;;;;;;;1999.90;999.90;;;19.50;99.90;;;;;;5086359;28;20446;-70
2022/11/01 11:25:50;;;;;;;1999.90;999.90;;;19.40;99.90;;;;;;5077324;28;20526;-70
2022/11/01 11:28:25;;;;;;;1999.90;999.90;;;19.40;99.90;;;;;;5080220;28;20507;-71
2022/11/01 11:30:52;;;;;;;1999.90;999.90;;;19.50;99.90;;;;;;5087560;28;20441;-72
2022/11/01 11:33:20;;;;;;;1999.90;999.90;;;19.50;99.90;;;;;;5081383;28;20956;-72
2022/11/01 11:35:58;;;;;;;1999.90;999.90;;;19.50;99.90;;;;;;5074732;28;20546;-71
2022/11/01 11:38:46;;;;;;;1999.90;999.90;;;19.50;99.90;;;;;;5079234;28;20861;-71
2022/11/01 11:41:25;;;;;;;1999.90;999.90;;;19.30;99.90;;;;;;5078730;28;20976;-71
2022/11/01 11:43:52;;;;;;;1999.90;999.90;;;19.20;99.90;;;;;;5077783;28;20446;-71
2022/11/01 11:46:22;;;;;;;1999.90;999.90;;;19.10;99.90;;;;;;5089010;28;20449;-72
2022/11/01 11:48:51;;;;;;;1999.90;999.90;;;19.10;99.90;;;;;;5086139;28;20492;-71
2022/11/01 11:51:20;;;;;;;1999.90;999.90;;;19.20;99.90;;;;;;5086304;28;21036;-68
2022/11/01 11:54:17;;;;;;;1999.90;999.90;;;19.20;99.90;;;;;;5082406;28;20450;-69
2022/11/01 11:56:45;;;;;;;1999.90;999.90;;;19.10;99.90;;;;;;5069615;28;20541;-69
2022/11/01 11:59:19;;;;;;;1999.90;999.90;;;18.90;99.90;;;;;;5087047;28;20474;-68
2022/11/01 12:01:47;;;;;;;1999.90;999.90;;;18.80;99.90;;;;;;5082693;28;20450;-72
2022/11/01 12:04:15;;;;;;;1999.90;999.90;;;18.50;99.90;;;;;;5086558;28;20442;-71
2022/11/01 12:06:45;;;;;;;1999.90;999.90;;;18.40;99.90;;;;;;5083347;28;20458;-72
2022/11/01 12:09:42;;;;;;;1999.90;999.90;;;18.00;99.90;;;;;;5083464;28;20546;-71
2022/11/01 12:12:16;;;;;;;1999.90;999.90;;;17.70;99.90;;;;;;5084694;28;20473;-72
2022/11/01 12:14:43;;;;;;;1999.90;999.90;;;17.40;99.90;;;;;;5085885;28;20554;-72
2022/11/01 12:17:24;;;;;;;1999.90;999.90;;;17.30;99.90;;;;;;5081272;28;20816;-70